Time;durP1;ratioP1;P1;durP2;ratioP2;P2;SDS_P1;SDS_P2;PMS_P1;PMS_P2;Temp;Humidity;BMP_temperature;BMP_pressure;BME280_temperature;BME280_humidity;BME280_pressure;Samples;Min_cycle;Max_cycle;Signal;HPM_P1;HPM_P2
2021/12/18 00:01:04;;;;;;;13.87;8.67;;;3.40;99.90;;;;;;5069168;28;20567;-73
2021/12/18 00:03:32;;;;;;;14.60;9.60;;;3.40;99.90;;;;;;5069015;28;20948;-72
2021/12/18 00:05:59;;;;;;;16.80;9.10;;;3.40;99.90;;;;;;5069228;28;20517;-73
2021/12/18 00:08:26;;;;;;;14.27;8.90;;;3.60;99.90;;;;;;5068905;28;20951;-73
2021/12/18 00:10:55;;;;;;;14.77;7.53;;;3.60;99.90;;;;;;5071239;28;20471;-72
2021/12/18 00:13:23;;;;;;;14.40;8.83;;;3.50;99.90;;;;;;5072990;28;20491;-73
2021/12/18 00:15:50;;;;;;;16.30;9.77;;;3.40;99.90;;;;;;5072748;28;20453;-73
2021/12/18 00:18:19;;;;;;;14.10;8.83;;;3.60;99.90;;;;;;5074004;28;20539;-72
2021/12/18 00:20:47;;;;;;;12.40;8.70;;;3.70;99.90;;;;;;5092693;28;20470;-72
2021/12/18 00:23:15;;;;;;;15.10;8.97;;;3.80;99.90;;;;;;5093112;28;20455;-72
2021/12/18 00:25:42;;;;;;;18.13;9.60;;;3.80;99.90;;;;;;5092494;28;20916;-73
2021/12/18 00:28:10;;;;;;;16.00;9.33;;;3.90;99.90;;;;;;5093072;28;20450;-72
2021/12/18 00:30:38;;;;;;;13.43;8.83;;;4.00;99.90;;;;;;5092963;28;20483;-72
2021/12/18 00:33:06;;;;;;;17.50;9.33;;;3.90;99.90;;;;;;5092686;28;20535;-72
2021/12/18 00:35:35;;;;;;;13.60;8.93;;;3.90;99.90;;;;;;5093015;28;20525;-72
2021/12/18 00:38:04;;;;;;;13.23;8.67;;;3.90;99.90;;;;;;5092507;28;20899;-73
2021/12/18 00:40:43;;;;;;;12.70;8.80;;;3.90;99.90;;;;;;5092552;28;20464;-72
2021/12/18 00:43:22;;;;;;;14.70;9.37;;;4.00;99.90;;;;;;5092924;28;20458;-72
2021/12/18 00:45:49;;;;;;;14.30;8.67;;;3.90;99.90;;;;;;5092661;28;20517;-73
2021/12/18 00:48:17;;;;;;;13.33;8.63;;;3.80;99.90;;;;;;5092416;28;20510;-72
2021/12/18 00:50:45;;;;;;;17.53;8.70;;;3.80;99.90;;;;;;5092409;28;20484;-73
2021/12/18 00:53:12;;;;;;;17.30;8.50;;;3.90;99.90;;;;;;5092716;28;20505;-72
2021/12/18 00:55:40;;;;;;;13.03;8.90;;;4.00;99.90;;;;;;5092403;28;20452;-72
2021/12/18 00:58:07;;;;;;;10.47;8.63;;;4.00;99.90;;;;;;5090843;28;20493;-72
2021/12/18 01:00:35;;;;;;;16.40;9.43;;;3.90;99.90;;;;;;5071618;28;20483;-72
2021/12/18 01:03:04;;;;;;;13.57;8.33;;;4.10;99.90;;;;;;5072023;28;20456;-72
2021/12/18 01:05:33;;;;;;;13.17;9.57;;;4.20;99.90;;;;;;5072065;28;20461;-72
2021/12/18 01:08:01;;;;;;;11.17;8.07;;;4.30;99.90;;;;;;5072173;28;20453;-73
2021/12/18 01:10:47;;;;;;;13.07;9.00;;;4.40;99.90;;;;;;5071522;28;20995;-72
2021/12/18 01:13:20;;;;;;;13.33;8.73;;;4.40;99.90;;;;;;5071788;28;20523;-71
2021/12/18 01:15:50;;;;;;;13.50;8.47;;;4.20;99.90;;;;;;5072056;28;20483;-72
2021/12/18 01:23:47;;;;;;;14.50;8.87;;;4.50;99.90;;;;;;5071717;28;20463;-71
2021/12/18 01:26:14;;;;;;;13.50;9.57;;;4.40;99.90;;;;;;5071555;28;20508;-71
2021/12/18 01:28:42;;;;;;;13.87;9.37;;;4.20;99.90;;;;;;5071795;28;20445;-71
2021/12/18 01:31:09;;;;;;;13.00;9.53;;;4.20;99.90;;;;;;5071579;28;20506;-71
2021/12/18 01:33:36;;;;;;;13.53;8.97;;;4.10;99.90;;;;;;5071115;28;21003;-72
2021/12/18 01:36:04;;;;;;;14.53;8.07;;;4.20;99.90;;;;;;5071402;28;20506;-72
2021/12/18 01:38:31;;;;;;;13.07;8.27;;;3.90;99.90;;;;;;5071626;28;20573;-72
2021/12/18 01:41:02;;;;;;;15.93;11.17;;;3.80;99.90;;;;;;5071081;28;20481;-73
2021/12/18 01:46:33;;;;;;;13.63;9.43;;;3.70;99.90;;;;;;5071431;28;20447;-72
2021/12/18 01:52:00;;;;;;;11.90;7.37;;;3.50;99.90;;;;;;5071336;28;20448;-72
2021/12/18 01:54:27;;;;;;;10.53;7.23;;;3.50;99.90;;;;;;5070872;28;20957;-73
2021/12/18 01:56:56;;;;;;;13.47;8.37;;;3.40;99.90;;;;;;5071028;28;20500;-73
2021/12/18 01:59:39;;;;;;;16.53;7.80;;;3.30;99.90;;;;;;5070638;28;20488;-72
2021/12/18 02:02:06;;;;;;;12.00;8.80;;;3.30;99.90;;;;;;5069393;28;20590;-72
2021/12/18 02:04:33;;;;;;;16.20;8.70;;;3.30;99.90;;;;;;5071180;28;20455;-73
2021/12/18 02:07:01;;;;;;;13.70;8.20;;;3.40;99.90;;;;;;5070857;28;20454;-72
2021/12/18 02:09:44;;;;;;;10.43;7.73;;;3.40;99.90;;;;;;5070842;28;20801;-73
2021/12/18 02:12:14;;;;;;;14.73;8.57;;;3.50;99.90;;;;;;5070581;28;20524;-72
2021/12/18 02:20:25;;;;;;;13.70;7.67;;;3.70;99.90;;;;;;5070516;28;20558;-73
2021/12/18 02:22:55;;;;;;;14.93;8.70;;;3.60;99.90;;;;;;5070700;28;20458;-72
2021/12/18 02:25:24;;;;;;;13.13;8.83;;;3.60;99.90;;;;;;5070592;28;20870;-72
2021/12/18 02:27:52;;;;;;;14.03;8.60;;;3.50;99.90;;;;;;5070356;28;20468;-73
2021/12/18 02:30:21;;;;;;;12.30;8.63;;;3.60;99.90;;;;;;5070382;28;20559;-72
2021/12/18 02:32:49;;;;;;;14.47;8.43;;;3.40;99.90;;;;;;5069845;28;20461;-72
2021/12/18 02:35:29;;;;;;;12.57;7.90;;;3.40;99.90;;;;;;5070064;28;20558;-73
2021/12/18 02:38:09;;;;;;;12.17;7.27;;;3.60;99.90;;;;;;5070402;28;20518;-72
2021/12/18 02:40:55;;;;;;;12.10;7.63;;;3.70;99.90;;;;;;5070107;28;20461;-72
2021/12/18 02:43:25;;;;;;;10.60;7.70;;;3.70;99.90;;;;;;5070384;28;20550;-72
2021/12/18 02:45:55;;;;;;;15.00;7.77;;;3.40;99.90;;;;;;5070155;28;20955;-72
2021/12/18 02:48:23;;;;;;;16.73;8.00;;;3.50;99.90;;;;;;5070119;28;20448;-73
2021/12/18 02:50:51;;;;;;;11.40;8.23;;;3.60;99.90;;;;;;5069928;28;20511;-72
2021/12/18 02:53:18;;;;;;;12.63;8.30;;;3.70;99.90;;;;;;5069978;28;20456;-73
2021/12/18 02:55:45;;;;;;;14.13;8.73;;;3.50;99.90;;;;;;5069976;28;20445;-73
2021/12/18 02:58:12;;;;;;;14.30;8.13;;;3.70;99.90;;;;;;5069783;28;20456;-71
2021/12/18 03:00:40;;;;;;;11.33;7.23;;;3.80;99.90;;;;;;5069800;28;20471;-72
2021/12/18 03:03:09;;;;;;;13.60;9.30;;;3.70;99.90;;;;;;5070336;28;20466;-71
2021/12/18 03:05:45;;;;;;;11.13;7.80;;;3.70;99.90;;;;;;5069795;28;20953;-72
2021/12/18 03:08:20;;;;;;;11.00;8.30;;;3.60;99.90;;;;;;5069753;28;20460;-71
2021/12/18 03:24:30;;;;;;;13.13;8.40;;;3.70;99.90;;;;;;5069050;28;20446;-72
2021/12/18 03:26:58;;;;;;;13.47;8.30;;;3.70;99.90;;;;;;5069622;28;20450;-72
2021/12/18 03:29:25;;;;;;;15.07;8.30;;;3.70;99.90;;;;;;5069713;28;20449;-72
2021/12/18 03:31:52;;;;;;;14.37;8.90;;;3.70;99.90;;;;;;5069519;28;20549;-72
2021/12/18 03:34:19;;;;;;;18.60;9.40;;;3.70;99.90;;;;;;5069633;28;20457;-72
2021/12/18 03:36:46;;;;;;;12.07;8.27;;;3.70;99.90;;;;;;5069588;28;20461;-71
2021/12/18 03:39:15;;;;;;;16.67;10.57;;;3.70;99.90;;;;;;5068895;28;21015;-72
2021/12/18 03:41:44;;;;;;;14.67;8.30;;;3.70;99.90;;;;;;5069666;28;20493;-71
2021/12/18 03:44:11;;;;;;;11.03;8.23;;;3.70;99.90;;;;;;5069529;28;20940;-71
2021/12/18 03:46:38;;;;;;;15.37;9.00;;;3.70;99.90;;;;;;5073315;28;20454;-71
2021/12/18 03:49:05;;;;;;;13.07;7.97;;;3.60;99.90;;;;;;5073613;28;20808;-72
2021/12/18 03:51:32;;;;;;;13.93;9.07;;;3.50;99.90;;;;;;5073445;28;20939;-71
2021/12/18 03:53:59;;;;;;;15.03;9.73;;;3.40;99.90;;;;;;5073464;28;20460;-71
2021/12/18 03:56:26;;;;;;;15.60;9.40;;;3.60;99.90;;;;;;5073388;28;20920;-71
2021/12/18 03:58:54;;;;;;;11.27;7.40;;;3.40;99.90;;;;;;5073295;28;20489;-71
2021/12/18 04:01:22;;;;;;;11.30;7.97;;;3.30;99.90;;;;;;5072975;28;20963;-72
2021/12/18 04:03:49;;;;;;;13.10;8.40;;;3.20;99.90;;;;;;5073167;28;20460;-72
2021/12/18 04:06:16;;;;;;;10.50;8.30;;;3.10;99.90;;;;;;5073312;28;20448;-71
2021/12/18 04:08:43;;;;;;;11.40;8.10;;;3.00;99.90;;;;;;5073550;28;20900;-72
2021/12/18 04:11:10;;;;;;;12.60;8.00;;;3.00;99.90;;;;;;5073331;28;20461;-71
2021/12/18 04:13:43;;;;;;;17.33;8.27;;;3.00;99.90;;;;;;5072793;28;20489;-71
2021/12/18 04:16:12;;;;;;;12.77;8.53;;;3.00;99.90;;;;;;5072186;28;20459;-72
2021/12/18 04:18:39;;;;;;;13.37;8.00;;;3.20;99.90;;;;;;5071511;28;20838;-72
2021/12/18 04:21:06;;;;;;;12.47;7.70;;;3.20;99.90;;;;;;5072817;28;20456;-72
2021/12/18 04:23:33;;;;;;;12.53;8.03;;;3.30;99.90;;;;;;5072894;28;20894;-70
2021/12/18 04:26:00;;;;;;;11.00;8.30;;;3.50;99.90;;;;;;5071148;28;20945;-72
2021/12/18 04:28:27;;;;;;;12.00;7.13;;;3.60;99.90;;;;;;5072835;28;20483;-72
2021/12/18 04:30:55;;;;;;;15.10;8.70;;;3.60;99.90;;;;;;5072858;28;20509;-80
2021/12/18 04:33:23;;;;;;;14.57;9.03;;;3.70;99.90;;;;;;5072367;28;20460;-71
2021/12/18 04:35:50;;;;;;;13.77;8.80;;;3.50;99.90;;;;;;5072857;28;20456;-71
2021/12/18 04:38:17;;;;;;;19.93;8.97;;;3.60;99.90;;;;;;5072634;28;20477;-71
2021/12/18 04:40:44;;;;;;;11.53;8.03;;;3.70;99.90;;;;;;5072373;28;20587;-72
2021/12/18 04:43:11;;;;;;;15.97;10.07;;;3.60;99.90;;;;;;5072731;28;20455;-72
2021/12/18 04:45:39;;;;;;;11.63;7.73;;;3.60;99.90;;;;;;5072506;28;20458;-72
2021/12/18 04:48:06;;;;;;;11.60;8.00;;;3.60;99.90;;;;;;5072555;28;20476;-72
2021/12/18 04:50:34;;;;;;;15.00;8.80;;;3.50;99.90;;;;;;5072378;28;21134;-72
2021/12/18 04:53:01;;;;;;;12.17;7.40;;;3.60;99.90;;;;;;5072508;28;20509;-71
2021/12/18 04:55:28;;;;;;;11.13;8.10;;;3.60;99.90;;;;;;5072317;28;20453;-71
2021/12/18 04:57:55;;;;;;;14.47;8.73;;;3.40;99.90;;;;;;5071033;28;20478;-74
2021/12/18 05:00:29;;;;;;;13.00;7.90;;;3.30;99.90;;;;;;5072035;28;20496;-72
2021/12/18 05:02:58;;;;;;;15.30;9.73;;;3.30;99.90;;;;;;5072105;28;20461;-72
2021/12/18 05:05:25;;;;;;;11.53;7.07;;;3.40;99.90;;;;;;5072205;28;20547;-73
2021/12/18 05:07:54;;;;;;;12.17;7.70;;;3.30;99.90;;;;;;5072234;28;20481;-73
2021/12/18 05:10:21;;;;;;;13.33;7.93;;;3.30;99.90;;;;;;5071860;28;20478;-73
2021/12/18 05:12:48;;;;;;;9.60;6.90;;;3.40;99.90;;;;;;5071607;28;20485;-72
2021/12/18 05:15:16;;;;;;;10.00;6.80;;;3.50;99.90;;;;;;5071667;28;20462;-72
2021/12/18 05:17:43;;;;;;;14.73;8.30;;;3.50;99.90;;;;;;5071614;28;20986;-72
2021/12/18 05:20:11;;;;;;;11.83;7.60;;;3.50;99.90;;;;;;5071923;28;20821;-72
2021/12/18 05:22:39;;;;;;;11.67;6.77;;;3.60;99.90;;;;;;5071841;28;20952;-72
2021/12/18 05:25:09;;;;;;;14.87;8.83;;;3.40;99.90;;;;;;5071478;28;20447;-72
2021/12/18 05:27:37;;;;;;;11.60;7.60;;;3.30;99.90;;;;;;5071613;28;20470;-72
2021/12/18 05:30:05;;;;;;;10.30;7.20;;;3.30;99.90;;;;;;5071724;28;20456;-73
2021/12/18 05:32:32;;;;;;;10.60;7.30;;;3.40;99.90;;;;;;5071682;28;20449;-73
2021/12/18 05:34:59;;;;;;;13.53;7.70;;;3.40;99.90;;;;;;5071192;28;20465;-71
2021/12/18 05:37:44;;;;;;;10.70;7.90;;;3.30;99.90;;;;;;5071269;28;20462;-73
2021/12/18 05:40:14;;;;;;;14.63;6.70;;;3.40;99.90;;;;;;5071388;28;20490;-72
2021/12/18 05:42:41;;;;;;;9.87;6.77;;;3.50;99.90;;;;;;5071354;28;20455;-72
2021/12/18 05:45:09;;;;;;;11.50;7.77;;;3.50;99.90;;;;;;5071299;28;20449;-71
2021/12/18 05:47:37;;;;;;;13.00;8.10;;;3.40;99.90;;;;;;5071310;28;20457;-71
2021/12/18 05:50:06;;;;;;;12.60;7.77;;;3.40;99.90;;;;;;5071195;28;20481;-71
2021/12/18 05:52:33;;;;;;;10.67;7.60;;;3.50;99.90;;;;;;5071336;28;20450;-71
2021/12/18 05:55:00;;;;;;;12.93;8.40;;;3.50;99.90;;;;;;5071210;28;20448;-72
2021/12/18 05:57:28;;;;;;;11.43;8.80;;;3.40;99.90;;;;;;5071284;28;20488;-72
2021/12/18 05:59:55;;;;;;;10.80;7.90;;;3.40;99.90;;;;;;5087163;28;20492;-74
2021/12/18 06:02:23;;;;;;;12.40;7.33;;;3.20;99.90;;;;;;5091403;28;20482;-72
2021/12/18 06:04:50;;;;;;;16.27;9.10;;;3.10;99.90;;;;;;5091147;28;20935;-75
2021/12/18 06:07:29;;;;;;;12.60;7.80;;;3.10;99.90;;;;;;5090769;28;20449;-73
2021/12/18 06:09:56;;;;;;;9.70;6.80;;;3.20;99.90;;;;;;5091322;28;20497;-76
2021/12/18 06:12:24;;;;;;;13.80;7.43;;;3.30;99.90;;;;;;5090742;28;20495;-73
2021/12/18 06:14:53;;;;;;;12.30;8.00;;;3.20;99.90;;;;;;5090833;28;20462;-72
2021/12/18 06:17:21;;;;;;;13.17;7.67;;;3.20;99.90;;;;;;5090767;28;20890;-72
2021/12/18 06:19:48;;;;;;;16.60;10.23;;;3.30;99.90;;;;;;5090460;28;20515;-72
2021/12/18 06:22:15;;;;;;;13.43;7.70;;;3.30;99.90;;;;;;5090597;28;20481;-72
2021/12/18 06:24:42;;;;;;;11.27;7.87;;;3.40;99.90;;;;;;5091108;28;20460;-71
2021/12/18 06:27:09;;;;;;;9.90;7.37;;;3.60;99.90;;;;;;5090611;28;20460;-71
2021/12/18 06:29:39;;;;;;;12.37;7.47;;;3.70;99.90;;;;;;5090467;28;20511;-71
2021/12/18 06:32:08;;;;;;;12.27;7.40;;;3.80;99.90;;;;;;5090522;28;20480;-71
2021/12/18 06:34:35;;;;;;;10.23;7.47;;;3.80;99.90;;;;;;5090074;28;20552;-71
2021/12/18 06:37:02;;;;;;;12.50;8.60;;;3.80;99.90;;;;;;5090660;28;20817;-68
2021/12/18 06:39:29;;;;;;;11.80;7.67;;;3.80;99.90;;;;;;5090505;28;20449;-70
2021/12/18 06:41:56;;;;;;;11.77;8.03;;;3.70;99.90;;;;;;5090536;28;20477;-71
2021/12/18 06:44:23;;;;;;;16.73;8.10;;;3.60;99.90;;;;;;5089005;28;20451;-71
2021/12/18 06:46:50;;;;;;;11.23;8.10;;;3.50;99.90;;;;;;5091033;28;20505;-71
2021/12/18 06:49:19;;;;;;;13.13;8.50;;;3.40;99.90;;;;;;5090672;28;20456;-70
2021/12/18 06:51:46;;;;;;;13.37;7.70;;;3.50;99.90;;;;;;5091683;28;20834;-69
2021/12/18 06:54:13;;;;;;;11.83;8.13;;;3.50;99.90;;;;;;5092180;28;20461;-70
2021/12/18 06:56:40;;;;;;;11.80;8.10;;;3.40;99.90;;;;;;5091086;28;20464;-69
2021/12/18 06:59:07;;;;;;;12.70;7.60;;;3.40;99.90;;;;;;5090193;28;20506;-70
2021/12/18 07:01:34;;;;;;;14.47;8.57;;;3.30;99.90;;;;;;5090915;28;20983;-72
2021/12/18 07:04:01;;;;;;;11.90;7.53;;;3.20;99.90;;;;;;5090445;28;21066;-69
2021/12/18 07:06:29;;;;;;;14.50;8.20;;;3.20;99.90;;;;;;5090394;28;20445;-70
2021/12/18 07:08:57;;;;;;;13.77;8.27;;;3.20;99.90;;;;;;5089414;28;20452;-69
2021/12/18 07:11:24;;;;;;;13.23;7.43;;;3.20;99.90;;;;;;5089849;28;20518;-70
2021/12/18 07:13:51;;;;;;;16.73;9.13;;;3.30;99.90;;;;;;5089518;28;20494;-69
2021/12/18 07:16:19;;;;;;;13.47;8.87;;;3.30;99.90;;;;;;5089375;28;20545;-70
2021/12/18 07:18:46;;;;;;;14.60;8.63;;;3.30;99.90;;;;;;5089405;28;20455;-73
2021/12/18 07:21:13;;;;;;;12.87;9.17;;;3.40;99.90;;;;;;5088998;28;20500;-70
2021/12/18 07:23:42;;;;;;;17.07;9.20;;;3.40;99.90;;;;;;5089735;28;20448;-73
2021/12/18 07:26:09;;;;;;;12.30;7.37;;;3.30;99.90;;;;;;5089610;28;20456;-70
2021/12/18 07:28:36;;;;;;;22.13;15.00;;;3.40;99.90;;;;;;5089438;28;20821;-71
2021/12/18 07:31:03;;;;;;;15.87;9.70;;;3.40;99.90;;;;;;5089558;28;20577;-70
2021/12/18 07:33:30;;;;;;;11.43;8.07;;;3.50;99.90;;;;;;5089751;28;20449;-71
2021/12/18 07:35:57;;;;;;;13.00;7.80;;;3.60;99.90;;;;;;5089709;28;20452;-70
2021/12/18 07:38:24;;;;;;;10.80;8.50;;;3.50;99.90;;;;;;5089783;28;21029;-76
2021/12/18 07:40:52;;;;;;;13.23;9.77;;;3.60;99.90;;;;;;5089462;28;20496;-77
2021/12/18 07:43:19;;;;;;;14.87;9.80;;;3.60;99.90;;;;;;5089746;28;20957;-72
2021/12/18 07:45:46;;;;;;;13.80;8.87;;;3.70;99.90;;;;;;5089649;28;20467;-73
2021/12/18 07:48:13;;;;;;;19.37;9.53;;;3.70;99.90;;;;;;5089559;28;20478;-71
2021/12/18 07:50:40;;;;;;;12.17;8.93;;;3.90;99.90;;;;;;5089522;28;20503;-71
2021/12/18 07:53:07;;;;;;;15.63;9.00;;;3.90;99.90;;;;;;5089481;28;20457;-74
2021/12/18 07:55:35;;;;;;;13.55;8.77;;;3.90;99.90;;;;;;5089487;28;20514;-74
2021/12/18 07:58:03;;;;;;;12.63;7.60;;;3.90;99.90;;;;;;5089242;28;20288;-68
2021/12/18 08:00:30;;;;;;;16.40;9.20;;;4.00;99.90;;;;;;5088738;28;20532;-70
2021/12/18 08:02:57;;;;;;;12.17;8.47;;;4.20;99.90;;;;;;5089521;28;20454;-68
2021/12/18 08:05:25;;;;;;;10.23;6.60;;;;;;;;;;5089414;28;20465;-69
2021/12/18 08:07:52;;;;;;;16.83;11.47;;;;;;;;;;5088875;28;20894;-69
2021/12/18 08:10:19;;;;;;;12.80;8.37;;;;;;;;;;5089316;28;20609;-70
2021/12/18 08:12:46;;;;;;;15.65;9.52;;;4.20;99.90;;;;;;5088117;28;20513;-71
2021/12/18 08:15:15;;;;;;;14.63;9.93;;;4.10;99.90;;;;;;5088845;28;20663;-69
2021/12/18 08:17:42;;;;;;;15.80;9.70;;;4.00;99.90;;;;;;5089141;28;20472;-69
2021/12/18 08:20:10;;;;;;;14.30;9.77;;;4.00;99.90;;;;;;5089045;28;20464;-69
2021/12/18 08:22:37;;;;;;;12.80;9.90;;;4.10;99.90;;;;;;5089762;28;20450;-70
2021/12/18 08:25:06;;;;;;;12.20;9.33;;;4.30;99.90;;;;;;5089538;28;20509;-70
2021/12/18 08:27:33;;;;;;;13.40;9.37;;;4.50;99.90;;;;;;5089452;28;20483;-70
2021/12/18 08:30:00;;;;;;;12.67;9.27;;;4.60;99.90;;;;;;5088860;28;20455;-70
2021/12/18 08:32:29;;;;;;;13.93;9.73;;;4.90;99.90;;;;;;5092667;28;20459;-69
2021/12/18 08:34:56;;;;;;;12.93;9.20;;;5.10;99.90;;;;;;5092773;28;20960;-70
2021/12/18 08:37:23;;;;;;;13.77;9.57;;;5.20;99.90;;;;;;5092415;28;20944;-69
2021/12/18 08:39:51;;;;;;;13.73;9.67;;;5.10;99.90;;;;;;5092726;28;20478;-70
2021/12/18 08:42:18;;;;;;;17.10;11.03;;;5.40;99.90;;;;;;5092826;28;20491;-70
2021/12/18 08:44:45;;;;;;;15.87;10.73;;;5.50;99.90;;;;;;5092642;28;20535;-70
2021/12/18 08:47:14;;;;;;;15.57;10.17;;;5.30;99.90;;;;;;5092558;28;20475;-70
2021/12/18 08:49:42;;;;;;;17.03;9.83;;;5.00;99.90;;;;;;5092443;28;20459;-69
2021/12/18 08:52:10;;;;;;;17.43;10.83;;;4.80;99.90;;;;;;5092473;28;20455;-69
2021/12/18 08:54:37;;;;;;;14.83;9.70;;;4.80;99.90;;;;;;5092467;28;20512;-70
2021/12/18 08:57:04;;;;;;;20.60;11.20;;;5.10;99.90;;;;;;5092482;28;20488;-70
2021/12/18 08:59:32;;;;;;;17.47;11.10;;;5.20;99.90;;;;;;5092752;28;20463;-71
2021/12/18 09:02:00;;;;;;;15.63;10.40;;;5.20;99.90;;;;;;5092278;28;21055;-70
2021/12/18 09:04:27;;;;;;;16.93;10.70;;;5.20;99.90;;;;;;5092077;28;21051;-71
2021/12/18 09:06:55;;;;;;;26.17;16.70;;;5.40;99.90;;;;;;5092136;28;20537;-70
2021/12/18 09:09:23;;;;;;;24.03;16.73;;;5.40;99.90;;;;;;5092164;28;20456;-71
2021/12/18 09:11:50;;;;;;;16.43;10.63;;;5.50;99.90;;;;;;5092213;28;20810;-69
2021/12/18 09:14:18;;;;;;;16.90;12.07;;;5.50;99.90;;;;;;5091772;28;20979;-71
2021/12/18 09:16:46;;;;;;;17.93;10.73;;;5.60;99.90;;;;;;5092389;28;20471;-69
2021/12/18 09:19:13;;;;;;;13.83;10.07;;;5.70;99.90;;;;;;5092130;28;20866;-70
2021/12/18 09:21:41;;;;;;;16.87;9.93;;;5.80;99.90;;;;;;5091788;28;20526;-70
2021/12/18 09:24:09;;;;;;;12.20;7.83;;;5.80;99.90;;;;;;5091579;28;20460;-69
2021/12/18 09:26:36;;;;;;;11.67;7.40;;;5.70;99.90;;;;;;5091922;28;20451;-70
2021/12/18 09:29:03;;;;;;;10.47;6.83;;;5.90;99.90;;;;;;5091213;28;20818;-72
2021/12/18 09:31:30;;;;;;;9.00;5.20;;;6.30;99.90;;;;;;5091659;28;20529;-70
2021/12/18 09:33:58;;;;;;;9.13;5.43;;;6.80;99.90;;;;;;5091862;28;20454;-72
2021/12/18 09:36:25;;;;;;;10.87;5.57;;;7.20;99.90;;;;;;5091696;28;20934;-70
2021/12/18 09:38:52;;;;;;;12.37;7.50;;;7.40;99.90;;;;;;5091858;28;20458;-69
2021/12/18 09:41:20;;;;;;;9.20;6.27;;;7.40;99.90;;;;;;5091585;28;20491;-71
2021/12/18 09:43:48;;;;;;;9.60;5.30;;;7.30;99.90;;;;;;5090653;28;20998;-71
2021/12/18 09:46:15;;;;;;;9.33;5.60;;;7.20;99.90;;;;;;5091191;28;20893;-71
2021/12/18 09:48:44;;;;;;;9.67;5.70;;;7.10;99.90;;;;;;5091365;28;20458;-70
2021/12/18 09:51:21;;;;;;;8.67;6.60;;;6.80;99.90;;;;;;5089909;28;20974;-71
2021/12/18 09:53:50;;;;;;;7.30;5.93;;;6.80;99.90;;;;;;5091643;28;20443;-70
2021/12/18 09:56:17;;;;;;;11.03;6.10;;;6.70;99.90;;;;;;5091417;28;20765;-70
2021/12/18 09:58:45;;;;;;;11.37;6.50;;;6.70;99.90;;;;;;5090311;28;20465;-71
2021/12/18 10:01:13;;;;;;;7.70;5.40;;;6.60;99.90;;;;;;5091098;28;20478;-71
2021/12/18 10:03:49;;;;;;;11.70;5.80;;;6.50;99.90;;;;;;5091403;28;20507;-71
2021/12/18 10:06:39;;;;;;;9.47;5.80;;;6.60;99.90;;;;;;5091148;28;20849;-76
2021/12/18 10:09:08;;;;;;;10.10;5.93;;;7.00;99.90;;;;;;5090953;28;20460;-70
2021/12/18 10:11:45;;;;;;;10.67;6.13;;;7.50;99.90;;;;;;5091153;28;20475;-70
2021/12/18 10:14:14;;;;;;;7.93;6.10;;;7.80;99.90;;;;;;5090952;28;20845;-64
2021/12/18 10:16:47;;;;;;;10.23;5.90;;;8.00;99.90;;;;;;5090940;28;20455;-69
2021/12/18 10:19:27;;;;;;;10.17;6.53;;;7.90;99.90;;;;;;5089301;28;20894;-70
2021/12/18 10:21:57;;;;;;;8.90;5.70;;;7.80;99.90;;;;;;5090863;28;20486;-69
2021/12/18 10:24:25;;;;;;;9.00;6.70;;;7.60;99.90;;;;;;5090936;28;20451;-70
2021/12/18 10:26:52;;;;;;;9.43;5.77;;;7.70;99.90;;;;;;5090821;28;20520;-69
2021/12/18 10:29:35;;;;;;;7.77;4.90;;;7.50;99.90;;;;;;5090529;28;20453;-70
2021/12/18 10:32:07;;;;;;;9.20;4.83;;;7.60;99.90;;;;;;5090703;28;20454;-69
2021/12/18 10:34:35;;;;;;;7.80;5.07;;;8.00;99.90;;;;;;5090643;28;20455;-71
2021/12/18 10:37:15;;;;;;;8.17;5.73;;;8.40;99.90;;;;;;5090747;28;20451;-70
2021/12/18 10:39:44;;;;;;;8.73;5.20;;;8.40;99.90;;;;;;5090033;28;20524;-70
2021/12/18 10:42:20;;;;;;;8.70;5.40;;;8.50;99.90;;;;;;5090074;28;20495;-71
2021/12/18 10:45:20;;;;;;;9.03;5.03;;;8.60;99.90;;;;;;5090416;28;20444;-70
2021/12/18 10:48:00;;;;;;;8.03;5.07;;;8.50;99.90;;;;;;5090343;28;20448;-70
2021/12/18 10:50:32;;;;;;;8.30;5.70;;;8.40;99.90;;;;;;5089858;28;20551;-70
2021/12/18 10:53:03;;;;;;;8.30;5.20;;;8.30;99.90;;;;;;5090391;28;20535;-70
2021/12/18 10:55:35;;;;;;;8.20;5.03;;;8.20;99.90;;;;;;5089135;28;20518;-71
2021/12/18 10:58:05;;;;;;;9.67;6.17;;;8.30;99.90;;;;;;5090064;28;20450;-71
2021/12/18 11:00:40;;;;;;;10.83;4.60;;;8.20;99.90;;;;;;5090001;28;21071;-70
2021/12/18 11:03:18;;;;;;;5.37;3.43;;;8.10;99.90;;;;;;5090001;28;20487;-69
2021/12/18 11:06:12;;;;;;;5.80;3.67;;;7.80;99.90;;;;;;5090176;28;20463;-71
2021/12/18 11:09:06;;;;;;;7.13;4.20;;;7.70;99.90;;;;;;5090253;28;20454;-70
2021/12/18 11:14:36;;;;;;;6.47;2.83;;;7.30;99.90;;;;;;5090012;28;20445;-70
2021/12/18 11:17:07;;;;;;;11.43;3.53;;;7.10;99.90;;;;;;5089923;28;20469;-70
2021/12/18 11:19:36;;;;;;;6.97;2.87;;;7.10;99.90;;;;;;5089456;28;20475;-70
2021/12/18 11:22:05;;;;;;;9.53;3.70;;;7.10;99.90;;;;;;5089741;28;20535;-69
2021/12/18 11:24:35;;;;;;;5.77;3.20;;;7.10;99.90;;;;;;5089938;28;20457;-69
2021/12/18 11:27:06;;;;;;;7.43;3.40;;;7.20;99.90;;;;;;5089891;28;20465;-71
2021/12/18 11:29:40;;;;;;;5.00;2.77;;;7.10;99.90;;;;;;5088283;28;20489;-69
2021/12/18 11:32:10;;;;;;;7.27;3.43;;;7.00;99.90;;;;;;5089684;28;20449;-70
2021/12/18 11:34:40;;;;;;;8.07;3.80;;;7.00;99.90;;;;;;5089201;28;20452;-70
2021/12/18 11:37:09;;;;;;;7.23;3.80;;;7.00;99.90;;;;;;5089553;28;20450;-70
2021/12/18 11:39:39;;;;;;;7.20;3.97;;;7.00;99.90;;;;;;5089564;28;20466;-70
2021/12/18 11:42:07;;;;;;;16.77;4.10;;;6.90;99.90;;;;;;5089258;28;20501;-70
2021/12/18 11:44:37;;;;;;;6.97;3.90;;;6.90;99.90;;;;;;5089856;28;20996;-71
2021/12/18 11:47:29;;;;;;;5.47;2.97;;;6.90;99.90;;;;;;5089216;28;20454;-71
2021/12/18 11:49:58;;;;;;;6.97;3.63;;;7.00;99.90;;;;;;5084025;28;20531;-70
2021/12/18 11:52:25;;;;;;;5.00;3.20;;;6.90;99.90;;;;;;5089598;28;20482;-70
2021/12/18 11:54:56;;;;;;;6.37;3.30;;;7.00;99.90;;;;;;5089686;28;20489;-69
2021/12/18 11:57:48;;;;;;;6.40;3.83;;;7.00;99.90;;;;;;5089133;28;20456;-69
2021/12/18 12:00:38;;;;;;;6.23;3.30;;;6.80;99.90;;;;;;5089413;28;20461;-69
2021/12/18 12:03:09;;;;;;;5.17;3.33;;;6.80;99.90;;;;;;5089442;28;20486;-71
2021/12/18 12:05:39;;;;;;;5.60;2.97;;;6.80;99.90;;;;;;5089812;28;20973;-71
2021/12/18 12:08:31;;;;;;;5.10;2.90;;;6.80;99.90;;;;;;5093317;28;20458;-69
2021/12/18 12:11:15;;;;;;;8.90;3.20;;;6.70;99.90;;;;;;5091386;28;20993;-69
2021/12/18 12:13:58;;;;;;;7.30;3.40;;;6.70;99.90;;;;;;5092851;28;20841;-70
2021/12/18 12:17:03;;;;;;;5.90;3.07;;;6.70;99.90;;;;;;5093390;28;20449;-69
2021/12/18 12:19:51;;;;;;;5.27;2.90;;;6.80;99.90;;;;;;5093285;28;20437;-69
2021/12/18 12:22:41;;;;;;;6.33;3.47;;;6.70;99.90;;;;;;5092996;28;20497;-70
2021/12/18 12:25:10;;;;;;;7.27;4.10;;;6.80;99.90;;;;;;5091777;28;20453;-70
2021/12/18 12:27:40;;;;;;;6.47;3.10;;;6.80;99.90;;;;;;5093352;28;20457;-70
2021/12/18 12:30:10;;;;;;;6.63;3.73;;;6.70;99.90;;;;;;5092953;28;20568;-70
2021/12/18 12:32:38;;;;;;;5.90;3.23;;;6.90;99.90;;;;;;5093020;28;20933;-70
2021/12/18 12:35:10;;;;;;;6.63;3.60;;;7.30;99.90;;;;;;5093328;28;20459;-71
2021/12/18 12:37:40;;;;;;;9.63;3.67;;;7.60;99.90;;;;;;5091559;28;20459;-69
2021/12/18 12:40:11;;;;;;;8.03;3.77;;;8.00;99.90;;;;;;5091204;28;20450;-71
2021/12/18 12:42:43;;;;;;;5.33;3.00;;;8.10;99.90;;;;;;5092653;28;20994;-70
2021/12/18 12:45:30;;;;;;;7.90;3.27;;;7.80;99.90;;;;;;5092588;28;20460;-70
2021/12/18 12:47:57;;;;;;;6.93;3.33;;;7.90;99.90;;;;;;5092420;28;20504;-70
2021/12/18 12:50:31;;;;;;;5.77;3.27;;;7.70;99.90;;;;;;5092689;28;20850;-71
2021/12/18 12:53:00;;;;;;;8.63;4.03;;;7.40;99.90;;;;;;5092118;28;20452;-69
2021/12/18 12:55:28;;;;;;;6.20;3.87;;;7.20;99.90;;;;;;5092443;28;20450;-69
2021/12/18 12:57:57;;;;;;;6.43;4.00;;;7.10;99.90;;;;;;5092721;28;20447;-69
2021/12/18 13:00:40;;;;;;;6.03;3.23;;;6.90;99.90;;;;;;5092259;28;20503;-69
2021/12/18 13:03:23;;;;;;;6.87;3.80;;;6.90;99.90;;;;;;5092319;27;20544;-70
2021/12/18 13:05:59;;;;;;;6.80;4.20;;;6.80;99.90;;;;;;5092274;28;20931;-70
2021/12/18 13:08:27;;;;;;;8.50;4.00;;;6.40;99.90;;;;;;5092522;28;20800;-70
2021/12/18 13:10:57;;;;;;;6.40;3.93;;;6.20;99.90;;;;;;5091952;28;20470;-70
2021/12/18 13:13:26;;;;;;;6.93;3.70;;;6.20;99.90;;;;;;5091851;28;20572;-69
2021/12/18 13:15:58;;;;;;;8.27;3.63;;;6.30;99.90;;;;;;5091523;28;20948;-70
2021/12/18 13:18:27;;;;;;;10.80;4.53;;;6.30;99.90;;;;;;5089643;28;20454;-70
2021/12/18 13:20:58;;;;;;;5.00;3.03;;;6.30;99.90;;;;;;5092133;28;20545;-70
2021/12/18 13:23:49;;;;;;;6.47;3.80;;;6.30;99.90;;;;;;5091926;28;20486;-69
2021/12/18 13:26:23;;;;;;;6.73;3.70;;;6.30;99.90;;;;;;5092099;28;20452;-69
2021/12/18 13:28:56;;;;;;;6.60;3.90;;;6.10;99.90;;;;;;5091733;28;20456;-69
2021/12/18 13:31:26;;;;;;;7.70;4.07;;;6.00;99.90;;;;;;5091587;28;20522;-69
2021/12/18 13:34:06;;;;;;;5.97;3.37;;;6.00;99.90;;;;;;5091913;28;20862;-69
2021/12/18 13:36:47;;;;;;;6.73;3.83;;;6.10;99.90;;;;;;5092023;28;20546;-69
2021/12/18 13:39:16;;;;;;;6.37;4.07;;;5.90;99.90;;;;;;5091434;28;21053;-69